Time;durP1;ratioP1;P1;durP2;ratioP2;P2;SDS_P1;SDS_P2;PMS_P1;PMS_P2;Temp;Humidity;BMP_temperature;BMP_pressure;BME280_temperature;BME280_humidity;BME280_pressure;Samples;Min_cycle;Max_cycle;Signal;HPM_P1;HPM_P2
2024/03/08 00:01:08;;;;;;;;;57.00;42.50;;;;;;;;5090127;27;46062;-60
2024/03/08 00:03:34;;;;;;;;;48.50;38.00;;;;;;;;5079929;27;45589;-59
2024/03/08 00:05:59;;;;;;;;;49.50;40.25;;;;;;;;5088647;27;45378;-59
2024/03/08 00:08:24;;;;;;;;;54.00;42.50;;;;;;;;5080407;27;45344;-59
2024/03/08 00:10:50;;;;;;;;;52.00;41.00;;;;;;;;5088981;27;45442;-59
2024/03/08 00:13:15;;;;;;;;;51.00;40.25;;;;;;;;5086222;27;45379;-59
2024/03/08 00:15:41;;;;;;;;;49.75;38.25;;;;;;;;5091753;27;45380;-59
2024/03/08 00:18:06;;;;;;;;;56.75;41.00;;;;;;;;5088570;27;45475;-59
2024/03/08 00:20:31;;;;;;;;;45.25;37.50;;;;;;;;5091508;27;46098;-59
2024/03/08 00:22:57;;;;;;;;;47.25;38.75;;;;;;;;5079287;27;45450;-59
2024/03/08 00:25:23;;;;;;;;;49.50;38.25;;;;;;;;5092038;27;45493;-59
2024/03/08 00:27:49;;;;;;;;;48.00;38.00;;;;;;;;5089012;27;45564;-59
2024/03/08 00:30:14;;;;;;;;;56.00;41.00;;;;;;;;5083737;27;46941;-58
2024/03/08 00:32:39;;;;;;;;;40.00;35.00;;;;;;;;5086135;27;45306;-58
2024/03/08 00:35:07;;;;;;;;;55.00;41.50;;;;;;;;5088140;27;45388;-58
2024/03/08 00:37:33;;;;;;;;;47.75;38.75;;;;;;;;5080708;27;45563;-58
2024/03/08 00:39:58;;;;;;;;;51.00;40.75;;;;;;;;5088715;27;47217;-58
2024/03/08 00:42:24;;;;;;;;;44.50;38.75;;;;;;;;5085610;27;45494;-58
2024/03/08 00:44:50;;;;;;;;;45.50;36.75;;;;;;;;5089255;27;45484;-59
2024/03/08 00:47:16;;;;;;;;;54.75;38.50;;;;;;;;5084856;27;45183;-59
2024/03/08 00:49:41;;;;;;;;;51.25;39.75;;;;;;;;5083639;27;46750;-59
2024/03/08 00:52:07;;;;;;;;;49.75;40.25;;;;;;;;5086615;27;45302;-59
2024/03/08 00:54:33;;;;;;;;;49.00;39.50;;;;;;;;5088930;27;45424;-59
2024/03/08 00:56:58;;;;;;;;;54.75;43.50;;;;;;;;5087371;27;45634;-59
2024/03/08 00:59:23;;;;;;;;;54.75;39.25;;;;;;;;5090122;27;46723;-59
2024/03/08 01:01:48;;;;;;;;;46.50;39.25;;;;;;;;5086722;27;45389;-59
2024/03/08 01:04:13;;;;;;;;;49.50;38.50;;;;;;;;5087981;27;45286;-59
2024/03/08 01:06:39;;;;;;;;;52.00;39.75;;;;;;;;5087394;27;45472;-59
2024/03/08 01:09:06;;;;;;;;;49.00;39.00;;;;;;;;5081984;27;46422;-59
2024/03/08 01:11:32;;;;;;;;;50.25;39.50;;;;;;;;5078911;27;45390;-59
2024/03/08 01:13:57;;;;;;;;;48.25;40.50;;;;;;;;5088566;27;45299;-59
2024/03/08 01:16:22;;;;;;;;;44.00;37.50;;;;;;;;5080953;27;45516;-60
2024/03/08 01:18:47;;;;;;;;;43.00;35.00;;;;;;;;5088707;27;46401;-59
2024/03/08 01:21:13;;;;;;;;;49.25;39.25;;;;;;;;5084503;27;45523;-59
2024/03/08 01:23:38;;;;;;;;;52.75;42.50;;;;;;;;5083287;27;45474;-59
2024/03/08 01:26:03;;;;;;;;;50.50;39.00;;;;;;;;5089728;27;45488;-60
2024/03/08 01:28:30;;;;;;;;;48.50;38.75;;;;;;;;5078528;27;46092;-60
2024/03/08 01:30:58;;;;;;;;;53.75;40.25;;;;;;;;5075048;27;45600;-60
2024/03/08 01:33:25;;;;;;;;;55.50;43.00;;;;;;;;5077810;27;45269;-59
2024/03/08 01:35:50;;;;;;;;;44.75;35.75;;;;;;;;5083150;27;45282;-59
2024/03/08 01:38:15;;;;;;;;;46.25;38.50;;;;;;;;5086547;27;46407;-59
2024/03/08 01:40:41;;;;;;;;;50.75;41.50;;;;;;;;5086481;27;45498;-60
2024/03/08 01:43:19;;;;;;;;;52.25;40.00;;;;;;;;5085865;27;45394;-59
2024/03/08 01:45:44;;;;;;;;;53.00;41.00;;;;;;;;5084253;27;45384;-59
2024/03/08 01:48:10;;;;;;;;;58.00;41.25;;;;;;;;5086545;27;46473;-60
2024/03/08 01:50:36;;;;;;;;;51.50;42.25;;;;;;;;5083971;27;45361;-59
2024/03/08 01:53:02;;;;;;;;;55.50;43.00;;;;;;;;5089470;27;46140;-60
2024/03/08 01:55:27;;;;;;;;;51.75;40.75;;;;;;;;5080333;27;45499;-60
2024/03/08 01:57:52;;;;;;;;;55.50;42.25;;;;;;;;5090609;27;46233;-59
2024/03/08 02:00:19;;;;;;;;;49.75;39.50;;;;;;;;5081061;27;45426;-59
2024/03/08 02:02:46;;;;;;;;;48.50;37.75;;;;;;;;5087440;27;45406;-59
2024/03/08 02:05:11;;;;;;;;;52.25;42.50;;;;;;;;5083755;27;45468;-60
2024/03/08 02:07:36;;;;;;;;;51.50;43.00;;;;;;;;5080165;27;45335;-59
2024/03/08 02:10:01;;;;;;;;;52.50;43.25;;;;;;;;5082212;27;45374;-59
2024/03/08 02:12:27;;;;;;;;;58.50;41.75;;;;;;;;5086110;27;45389;-59
2024/03/08 02:14:53;;;;;;;;;56.00;44.75;;;;;;;;5080173;27;45398;-59
2024/03/08 02:17:18;;;;;;;;;46.50;39.25;;;;;;;;5087350;27;46347;-60
2024/03/08 02:19:44;;;;;;;;;54.25;42.50;;;;;;;;5085491;27;45432;-59
2024/03/08 02:22:09;;;;;;;;;54.75;41.75;;;;;;;;5083083;27;45478;-60
2024/03/08 02:24:34;;;;;;;;;53.50;42.75;;;;;;;;5084020;27;45388;-60
2024/03/08 02:26:59;;;;;;;;;46.00;38.25;;;;;;;;5086884;27;45632;-59
2024/03/08 02:29:25;;;;;;;;;54.75;43.50;;;;;;;;5076892;27;45403;-59
2024/03/08 02:31:53;;;;;;;;;57.00;43.00;;;;;;;;5086526;27;45486;-59
2024/03/08 02:34:18;;;;;;;;;55.00;42.25;;;;;;;;5084475;27;46317;-60
2024/03/08 02:36:43;;;;;;;;;46.00;39.00;;;;;;;;5087106;27;46124;-60
2024/03/08 02:39:10;;;;;;;;;60.50;43.00;;;;;;;;5084605;27;45218;-59
2024/03/08 02:41:35;;;;;;;;;55.50;43.25;;;;;;;;5087586;27;45354;-59
2024/03/08 02:44:00;;;;;;;;;58.25;41.00;;;;;;;;5085061;27;45250;-59
2024/03/08 02:46:26;;;;;;;;;60.75;48.00;;;;;;;;5081193;27;45448;-59
2024/03/08 02:48:51;;;;;;;;;58.25;43.25;;;;;;;;5087873;27;45392;-60
2024/03/08 02:51:16;;;;;;;;;54.50;42.50;;;;;;;;5091377;27;46088;-59
2024/03/08 02:53:42;;;;;;;;;54.00;43.75;;;;;;;;5089840;27;45756;-59
2024/03/08 02:56:12;;;;;;;;;54.25;42.00;;;;;;;;5091870;27;46205;-59
2024/03/08 02:58:37;;;;;;;;;58.50;42.25;;;;;;;;5081130;27;45335;-59
2024/03/08 03:01:03;;;;;;;;;57.00;43.50;;;;;;;;5082965;27;45512;-60
2024/03/08 03:03:28;;;;;;;;;54.00;37.75;;;;;;;;5087076;27;45583;-59
2024/03/08 03:05:55;;;;;;;;;44.00;37.00;;;;;;;;5092286;27;45531;-59
2024/03/08 03:08:20;;;;;;;;;55.50;41.25;;;;;;;;5084863;27;45468;-59
2024/03/08 03:10:45;;;;;;;;;56.25;41.00;;;;;;;;5093303;27;45258;-59
2024/03/08 03:13:12;;;;;;;;;54.25;43.75;;;;;;;;5089593;27;45569;-59
2024/03/08 03:15:37;;;;;;;;;51.50;41.50;;;;;;;;5093321;27;46074;-59
2024/03/08 03:18:02;;;;;;;;;54.00;43.50;;;;;;;;5086965;27;45437;-59
2024/03/08 03:20:32;;;;;;;;;55.75;42.25;;;;;;;;5092191;27;45390;-60
2024/03/08 03:22:57;;;;;;;;;50.75;40.25;;;;;;;;5082355;27;45603;-60
2024/03/08 03:25:28;;;;;;;;;56.50;39.50;;;;;;;;5092740;27;45344;-59
2024/03/08 03:27:56;;;;;;;;;53.25;40.50;;;;;;;;5088092;27;45352;-59
2024/03/08 03:30:21;;;;;;;;;52.75;40.50;;;;;;;;5084270;27;45449;-59
2024/03/08 03:32:47;;;;;;;;;51.25;41.25;;;;;;;;5089908;27;45381;-59
2024/03/08 03:35:14;;;;;;;;;53.75;41.00;;;;;;;;5089449;27;46284;-59
2024/03/08 03:37:39;;;;;;;;;54.00;41.00;;;;;;;;5086315;27;45307;-59
2024/03/08 03:40:05;;;;;;;;;56.75;42.00;;;;;;;;5089874;27;45623;-59
2024/03/08 03:42:31;;;;;;;;;56.75;42.50;;;;;;;;5086743;27;45320;-59
2024/03/08 03:44:56;;;;;;;;;58.00;42.75;;;;;;;;5086592;27;46421;-59
2024/03/08 03:47:21;;;;;;;;;54.50;44.00;;;;;;;;5085313;27;45424;-60
2024/03/08 03:49:47;;;;;;;;;55.75;42.50;;;;;;;;5090173;27;45458;-59
2024/03/08 03:52:12;;;;;;;;;51.25;40.50;;;;;;;;5084163;27;45429;-60
2024/03/08 03:54:37;;;;;;;;;56.25;42.25;;;;;;;;5085170;27;46353;-60
2024/03/08 03:57:02;;;;;;;;;51.75;39.75;;;;;;;;5084951;27;45238;-60
2024/03/08 03:59:28;;;;;;;;;56.75;43.25;;;;;;;;5080850;27;45327;-59
2024/03/08 04:01:54;;;;;;;;;52.25;39.25;;;;;;;;5080944;27;45352;-59
2024/03/08 04:04:19;;;;;;;;;56.00;44.00;;;;;;;;5081896;27;47976;-59
2024/03/08 04:06:44;;;;;;;;;52.75;42.50;;;;;;;;5085195;27;45431;-59
2024/03/08 04:09:11;;;;;;;;;55.75;43.25;;;;;;;;5090896;27;45334;-60
2024/03/08 04:11:36;;;;;;;;;57.50;43.50;;;;;;;;5080551;27;45454;-59
2024/03/08 04:14:01;;;;;;;;;57.25;42.25;;;;;;;;5090440;27;45277;-59
2024/03/08 04:16:26;;;;;;;;;58.25;43.75;;;;;;;;5085302;27;45238;-59
2024/03/08 04:18:52;;;;;;;;;56.25;45.50;;;;;;;;5091582;27;45262;-59
2024/03/08 04:21:18;;;;;;;;;55.50;41.25;;;;;;;;5084850;27;45532;-60
2024/03/08 04:23:45;;;;;;;;;45.50;36.50;;;;;;;;5085804;27;47760;-59
2024/03/08 04:26:10;;;;;;;;;56.25;44.50;;;;;;;;5086053;27;45461;-60
2024/03/08 04:28:37;;;;;;;;;56.50;44.00;;;;;;;;5085424;27;45489;-59
2024/03/08 04:31:02;;;;;;;;;56.50;41.50;;;;;;;;5084813;27;45383;-59
2024/03/08 04:33:28;;;;;;;;;52.00;41.75;;;;;;;;5088720;27;46400;-60
2024/03/08 04:35:53;;;;;;;;;59.75;43.00;;;;;;;;5086562;27;45670;-60
2024/03/08 04:38:18;;;;;;;;;55.75;43.00;;;;;;;;5089053;27;45617;-59
2024/03/08 04:40:43;;;;;;;;;55.25;45.25;;;;;;;;5086750;27;45409;-59
2024/03/08 04:43:10;;;;;;;;;57.25;45.25;;;;;;;;5088917;27;45431;-59
2024/03/08 04:45:35;;;;;;;;;50.75;39.75;;;;;;;;5086536;27;45269;-59
2024/03/08 04:48:00;;;;;;;;;57.00;42.00;;;;;;;;5089112;27;45562;-59
2024/03/08 04:50:28;;;;;;;;;56.00;39.50;;;;;;;;5086273;27;45438;-60
2024/03/08 04:52:54;;;;;;;;;55.50;42.50;;;;;;;;5088442;27;46254;-59
2024/03/08 04:55:20;;;;;;;;;54.50;41.75;;;;;;;;5084705;27;46222;-59
2024/03/08 04:57:46;;;;;;;;;54.25;44.00;;;;;;;;5090481;27;45437;-59
2024/03/08 05:00:11;;;;;;;;;56.00;43.00;;;;;;;;5086897;27;45494;-59
2024/03/08 05:02:38;;;;;;;;;57.25;42.50;;;;;;;;5082845;27;46290;-59
2024/03/08 05:05:04;;;;;;;;;59.75;45.50;;;;;;;;5079590;27;45451;-59
2024/03/08 05:07:30;;;;;;;;;60.00;43.25;;;;;;;;5089291;27;45397;-59
2024/03/08 05:09:55;;;;;;;;;50.50;40.50;;;;;;;;5083391;27;45247;-59
2024/03/08 05:12:20;;;;;;;;;58.50;41.50;;;;;;;;5088196;27;45468;-59
2024/03/08 05:14:49;;;;;;;;;61.75;44.75;;;;;;;;5086049;27;45392;-59
2024/03/08 05:17:14;;;;;;;;;60.50;46.50;;;;;;;;5085779;27;45350;-59
2024/03/08 05:19:39;;;;;;;;;50.75;41.50;;;;;;;;5082802;27;45383;-60
2024/03/08 05:22:04;;;;;;;;;54.50;45.00;;;;;;;;5088570;27;46744;-59
2024/03/08 05:24:30;;;;;;;;;58.25;42.25;;;;;;;;5088375;27;45219;-59
2024/03/08 05:26:55;;;;;;;;;56.00;45.25;;;;;;;;5084366;27;45512;-59
2024/03/08 05:29:20;;;;;;;;;60.75;43.00;;;;;;;;5081756;27;45458;-59
2024/03/08 05:31:48;;;;;;;;;53.00;40.00;;;;;;;;5087435;27;45539;-59
2024/03/08 05:34:14;;;;;;;;;51.50;40.25;;;;;;;;5085260;27;45384;-60
2024/03/08 05:36:39;;;;;;;;;41.00;31.50;;;;;;;;5087851;27;45306;-59
2024/03/08 05:39:06;;;;;;;;;60.25;45.25;;;;;;;;5077750;27;45682;-60
2024/03/08 05:41:31;;;;;;;;;61.25;40.25;;;;;;;;5087210;27;47971;-59
2024/03/08 05:43:57;;;;;;;;;47.00;37.00;;;;;;;;5085140;27;45251;-59
2024/03/08 05:46:22;;;;;;;;;48.25;37.25;;;;;;;;5088236;27;45238;-60
2024/03/08 05:48:47;;;;;;;;;56.50;42.00;;;;;;;;5087113;27;45281;-59
2024/03/08 05:51:12;;;;;;;;;57.50;42.75;;;;;;;;5087886;27;45727;-59
2024/03/08 05:53:37;;;;;;;;;58.25;42.50;;;;;;;;5087016;27;45364;-59
2024/03/08 05:56:03;;;;;;;;;59.75;44.50;;;;;;;;5080084;27;45326;-60
2024/03/08 05:58:30;;;;;;;;;55.00;41.50;;;;;;;;5081648;27;45731;-59
2024/03/08 06:00:55;;;;;;;;;60.75;45.75;;;;;;;;5075987;27;47090;-59
2024/03/08 06:03:21;;;;;;;;;57.50;41.75;;;;;;;;5074367;27;45399;-60
2024/03/08 06:05:47;;;;;;;;;57.25;44.75;;;;;;;;5073742;27;45577;-60
2024/03/08 06:08:14;;;;;;;;;55.50;44.00;;;;;;;;5087021;27;45504;-59
2024/03/08 06:10:39;;;;;;;;;56.75;43.75;;;;;;;;5069301;27;45583;-59
2024/03/08 06:13:05;;;;;;;;;62.75;47.25;;;;;;;;5075909;27;45847;-59
2024/03/08 06:15:30;;;;;;;;;57.00;46.00;;;;;;;;5073574;28;45472;-60
2024/03/08 06:17:55;;;;;;;;;58.00;40.50;;;;;;;;5092955;27;45357;-60
2024/03/08 06:20:22;;;;;;;;;56.25;45.50;;;;;;;;5079764;27;45499;-59
2024/03/08 06:22:51;;;;;;;;;58.75;47.00;;;;;;;;5080189;28;45526;-59
2024/03/08 06:25:16;;;;;;;;;56.50;41.25;;;;;;;;5081852;27;45456;-59
2024/03/08 06:27:42;;;;;;;;;50.75;40.50;;;;;;;;5081082;27;45502;-59
2024/03/08 06:30:09;;;;;;;;;63.50;48.75;;;;;;;;5076001;27;47007;-59
2024/03/08 06:32:35;;;;;;;;;53.75;43.75;;;;;;;;5080232;28;45523;-59
2024/03/08 06:35:00;;;;;;;;;62.25;47.75;;;;;;;;5077353;27;45429;-59
2024/03/08 06:37:26;;;;;;;;;62.25;43.75;;;;;;;;5079772;27;45436;-60
2024/03/08 06:39:51;;;;;;;;;55.50;45.00;;;;;;;;5081246;27;46797;-59
2024/03/08 06:42:17;;;;;;;;;55.75;46.00;;;;;;;;5080700;27;45283;-60
2024/03/08 06:44:48;;;;;;;;;59.00;45.25;;;;;;;;5081217;27;45869;-59
2024/03/08 06:47:15;;;;;;;;;54.25;41.50;;;;;;;;5078653;28;45413;-59
2024/03/08 06:49:40;;;;;;;;;60.00;43.75;;;;;;;;5081721;27;45877;-59
2024/03/08 06:52:06;;;;;;;;;60.00;45.50;;;;;;;;5079933;27;45341;-59
2024/03/08 06:54:32;;;;;;;;;53.75;42.00;;;;;;;;5080647;28;45316;-59
2024/03/08 06:56:57;;;;;;;;;59.25;43.00;;;;;;;;5081002;27;45355;-59
2024/03/08 06:59:22;;;;;;;;;59.75;44.00;;;;;;;;5080889;28;46338;-59
2024/03/08 07:01:48;;;;;;;;;59.75;44.00;;;;;;;;5080180;27;45428;-59
2024/03/08 07:04:13;;;;;;;;;51.50;42.25;;;;;;;;5080737;27;45371;-59
2024/03/08 07:06:40;;;;;;;;;55.25;42.75;;;;;;;;5079907;27;45210;-59
2024/03/08 07:09:05;;;;;;;;;64.50;45.50;;;;;;;;5081212;27;46450;-59
2024/03/08 07:11:31;;;;;;;;;59.00;44.75;;;;;;;;5080862;27;45272;-53
2024/03/08 07:13:57;;;;;;;;;53.50;37.50;;;;;;;;5088082;27;45594;-59
2024/03/08 07:16:22;;;;;;;;;57.25;43.00;;;;;;;;5080402;27;45555;-59
2024/03/08 07:18:47;;;;;;;;;65.75;45.00;;;;;;;;5080962;27;45480;-59
2024/03/08 07:21:12;;;;;;;;;60.75;44.25;;;;;;;;5080232;27;45365;-59
2024/03/08 07:23:54;;;;;;;;;59.25;42.00;;;;;;;;5083380;27;45522;-60
2024/03/08 07:26:19;;;;;;;;;48.25;37.50;;;;;;;;5090100;27;45164;-60
2024/03/08 07:28:45;;;;;;;;;55.00;41.50;;;;;;;;5078827;27;46163;-59
2024/03/08 07:32:01;;;;;;;;;55.00;44.25;;;;;;;;5081415;27;45261;-60
2024/03/08 07:33:58;;;;;;;;;59.50;44.25;;;;;;;;5079461;27;45275;-60
2024/03/08 07:36:24;;;;;;;;;60.00;45.75;;;;;;;;5080050;27;45496;-60
2024/03/08 07:38:49;;;;;;;;;54.75;43.75;;;;;;;;5087355;27;46362;-60
2024/03/08 07:41:17;;;;;;;;;61.00;46.00;;;;;;;;5084383;27;45311;-60
2024/03/08 07:43:43;;;;;;;;;54.75;45.25;;;;;;;;5090666;27;45617;-60
2024/03/08 07:46:10;;;;;;;;;62.50;46.00;;;;;;;;5086492;27;45526;-60
2024/03/08 07:48:36;;;;;;;;;64.00;47.50;;;;;;;;5082521;27;46460;-60
2024/03/08 07:51:02;;;;;;;;;59.75;44.75;;;;;;;;5083888;27;45344;-60
2024/03/08 07:53:28;;;;;;;;;59.00;48.00;;;;;;;;5086302;27;45469;-60
2024/03/08 07:55:53;;;;;;;;;52.00;40.50;;;;;;;;5084324;27;45461;-60
2024/03/08 07:58:18;;;;;;;;;62.50;47.75;;;;;;;;5080056;27;46223;-60
2024/03/08 08:00:43;;;;;;;;;61.00;44.50;;;;;;;;5078131;27;45359;-60
2024/03/08 08:03:09;;;;;;;;;62.25;47.50;;;;;;;;5082486;27;45507;-60
2024/03/08 08:05:35;;;;;;;;;56.00;37.25;;;;;;;;5081830;27;45397;-58
2024/03/08 08:08:03;;;;;;;;;51.75;39.50;;;;;;;;5080702;27;46208;-60
2024/03/08 08:10:28;;;;;;;;;49.00;40.25;;;;;;;;5074319;27;45775;-61
2024/03/08 08:12:53;;;;;;;;;57.50;41.75;;;;;;;;5076536;27;45460;-60
2024/03/08 08:15:19;;;;;;;;;53.50;39.50;;;;;;;;5075344;27;45738;-60
2024/03/08 08:17:44;;;;;;;;;58.50;45.00;;;;;;;;5081708;27;46419;-60
2024/03/08 08:20:12;;;;;;;;;56.00;44.00;;;;;;;;5076495;27;45622;-62
2024/03/08 08:22:39;;;;;;;;;58.00;42.00;;;;;;;;5080140;27;45402;-61
2024/03/08 08:25:04;;;;;;;;;68.00;51.50;;;;;;;;5075365;27;45564;-60
2024/03/08 08:27:29;;;;;;;;;60.75;46.25;;;;;;;;5078642;27;46024;-61
2024/03/08 08:29:55;;;;;;;;;57.75;44.00;;;;;;;;5079326;27;45476;-61
2024/03/08 08:32:20;;;;;;;;;44.50;37.50;;;;;;;;5086662;27;45366;-61
2024/03/08 08:34:46;;;;;;;;;56.50;44.50;;;;;;;;5074064;27;45274;-61
2024/03/08 08:37:12;;;;;;;;;50.50;39.75;;;;;;;;5083193;27;45398;-61
2024/03/08 08:39:38;;;;;;;;;57.50;43.25;;;;;;;;5073734;27;45414;-61
2024/03/08 08:42:03;;;;;;;;;58.25;42.00;;;;;;;;5068607;27;45448;-61
2024/03/08 08:44:28;;;;;;;;;50.75;38.75;;;;;;;;5077590;27;45683;-61
2024/03/08 08:46:53;;;;;;;;;57.00;42.25;;;;;;;;5077008;27;45416;-61
2024/03/08 08:49:20;;;;;;;;;59.75;45.00;;;;;;;;5072175;27;46674;-61
2024/03/08 08:51:49;;;;;;;;;53.25;41.75;;;;;;;;5076385;27;45414;-61
2024/03/08 08:54:16;;;;;;;;;54.75;41.50;;;;;;;;5078086;27;45511;-61
2024/03/08 08:56:43;;;;;;;;;53.00;40.50;;;;;;;;5071866;27;46223;-61
2024/03/08 08:59:08;;;;;;;;;53.00;42.50;;;;;;;;5070525;27;45484;-61
2024/03/08 09:01:34;;;;;;;;;56.00;43.75;;;;;;;;5078427;27;45344;-61
2024/03/08 09:03:59;;;;;;;;;48.00;39.50;;;;;;;;5076776;27;45818;-61
2024/03/08 09:06:24;;;;;;;;;53.00;40.50;;;;;;;;5077122;27;47967;-61
2024/03/08 09:08:50;;;;;;;;;51.00;42.50;;;;;;;;5084142;27;45212;-61
2024/03/08 09:11:15;;;;;;;;;55.50;40.75;;;;;;;;5078697;27;45821;-61
2024/03/08 09:13:40;;;;;;;;;48.75;37.75;;;;;;;;5081720;27;45240;-61
2024/03/08 09:16:06;;;;;;;;;37.75;31.50;;;;;;;;5076058;27;46391;-61
2024/03/08 09:18:32;;;;;;;;;46.25;37.75;;;;;;;;5077459;27;45275;-61
2024/03/08 09:20:57;;;;;;;;;42.00;36.75;;;;;;;;5078567;27;45399;-61
2024/03/08 09:23:22;;;;;;;;;52.00;37.00;;;;;;;;5078196;27;45495;-61
2024/03/08 09:25:47;;;;;;;;;42.25;34.00;;;;;;;;5079132;27;46038;-61
2024/03/08 09:28:13;;;;;;;;;48.00;36.50;;;;;;;;5078542;27;45395;-61
2024/03/08 09:30:39;;;;;;;;;46.00;38.00;;;;;;;;5071664;27;46059;-60
2024/03/08 09:33:04;;;;;;;;;41.33;34.00;;;;;;;;5079504;27;45650;-60
2024/03/08 09:35:29;;;;;;;;;46.33;35.00;;;;;;;;5078735;27;45689;-60
2024/03/08 09:37:55;;;;;;;;;38.33;30.67;;;;;;;;5079041;27;45354;-60
2024/03/08 09:40:23;;;;;;;;;44.00;36.50;;;;;;;;5077600;27;45417;-60
2024/03/08 09:42:49;;;;;;;;;46.25;38.00;;;;;;;;5079032;27;45346;-60
2024/03/08 09:45:16;;;;;;;;;47.67;38.33;;;;;;;;5078515;27;45515;-60
2024/03/08 09:47:42;;;;;;;;;46.33;37.33;;;;;;;;5079877;27;45724;-60
2024/03/08 09:50:09;;;;;;;;;44.00;33.67;;;;;;;;5077264;27;45500;-60
2024/03/08 09:52:35;;;;;;;;;44.00;36.00;;;;;;;;5081119;27;45484;-60
2024/03/08 09:55:01;;;;;;;;;31.33;28.33;;;;;;;;5081368;27;45378;-60
2024/03/08 09:57:26;;;;;;;;;45.67;34.00;;;;;;;;5084676;27;45470;-60
2024/03/08 09:59:51;;;;;;;;;43.33;35.67;;;;;;;;5086235;27;45415;-59
2024/03/08 10:02:17;;;;;;;;;43.67;33.67;;;;;;;;5086692;27;45321;-60
2024/03/08 10:04:42;;;;;;;;;38.33;33.67;;;;;;;;5084306;27;46208;-59
2024/03/08 10:07:07;;;;;;;;;34.00;31.33;;;;;;;;5084891;27;45282;-60
2024/03/08 10:09:32;;;;;;;;;46.67;35.00;;;;;;;;5085426;27;45504;-60
2024/03/08 10:11:58;;;;;;;;;40.00;33.33;;;;;;;;5085230;27;45530;-60
2024/03/08 10:14:24;;;;;;;;;36.33;28.33;;;;;;;;5083449;27;47864;-60
2024/03/08 10:16:49;;;;;;;;;38.33;33.00;;;;;;;;5082126;27;45357;-60
2024/03/08 10:19:15;;;;;;;;;37.33;32.00;;;;;;;;5084558;27;45507;-60
2024/03/08 10:21:51;;;;;;;;;32.67;30.33;;;;;;;;5084334;27;45724;-59
2024/03/08 10:24:17;;;;;;;;;36.00;29.00;;;;;;;;5084354;27;48010;-59
2024/03/08 10:26:44;;;;;;;;;32.67;31.00;;;;;;;;5088898;27;45515;-60
2024/03/08 10:29:09;;;;;;;;;29.67;24.00;;;;;;;;5077619;27;45347;-59
2024/03/08 10:31:34;;;;;;;;;30.33;26.67;;;;;;;;5084494;27;45585;-63
2024/03/08 10:34:00;;;;;;;;;26.67;25.00;;;;;;;;5088430;27;45602;-63
2024/03/08 10:36:26;;;;;;;;;33.00;30.67;;;;;;;;5085524;27;47095;-63
2024/03/08 10:38:53;;;;;;;;;28.00;23.33;;;;;;;;5091910;27;45283;-65
2024/03/08 10:41:18;;;;;;;;;25.67;24.67;;;;;;;;5084562;27;45465;-64
2024/03/08 10:43:59;;;;;;;;;24.00;22.00;;;;;;;;5091045;27;45353;-64
2024/03/08 10:46:24;;;;;;;;;28.67;28.67;;;;;;;;5080758;27;45507;-63
2024/03/08 10:48:49;;;;;;;;;23.00;23.00;;;;;;;;5093317;27;45518;-63
2024/03/08 10:51:15;;;;;;;;;30.00;24.67;;;;;;;;5092168;27;45685;-64
2024/03/08 10:53:41;;;;;;;;;36.33;32.33;;;;;;;;5082158;27;45444;-60
2024/03/08 10:56:07;;;;;;;;;23.00;20.67;;;;;;;;5094543;27;45521;-64
2024/03/08 10:58:34;;;;;;;;;20.00;20.00;;;;;;;;5091100;27;45540;-62
2024/03/08 11:00:59;;;;;;;;;20.67;17.33;;;;;;;;5084253;27;45634;-62
2024/03/08 11:03:39;;;;;;;;;21.33;20.67;;;;;;;;5077423;27;45454;-63
2024/03/08 11:06:05;;;;;;;;;20.00;20.00;;;;;;;;5075797;27;45474;-62
2024/03/08 11:08:31;;;;;;;;;32.67;26.33;;;;;;;;5073646;27;45439;-62
2024/03/08 11:10:56;;;;;;;;;28.33;22.33;;;;;;;;5082607;27;45462;-62
2024/03/08 11:13:34;;;;;;;;;23.33;21.67;;;;;;;;5080180;27;45408;-62
2024/03/08 11:16:00;;;;;;;;;25.67;25.33;;;;;;;;5074048;27;45398;-64
2024/03/08 11:18:26;;;;;;;;;19.33;18.67;;;;;;;;5074736;27;45426;-62
2024/03/08 11:20:53;;;;;;;;;22.67;21.00;;;;;;;;5075401;27;45422;-62
2024/03/08 11:23:22;;;;;;;;;28.00;22.33;;;;;;;;5071066;27;47046;-62
2024/03/08 11:25:52;;;;;;;;;24.33;20.67;;;;;;;;5078533;27;45496;-62
2024/03/08 11:28:18;;;;;;;;;19.33;19.00;;;;;;;;5076329;27;45450;-62
2024/03/08 11:31:03;;;;;;;;;20.00;17.67;;;;;;;;5067627;27;45437;-63
2024/03/08 11:33:30;;;;;;;;;16.67;15.00;;;;;;;;5075532;27;45562;-62
2024/03/08 11:36:11;;;;;;;;;18.67;15.00;;;;;;;;5077654;27;45352;-63
2024/03/08 11:38:40;;;;;;;;;19.00;15.67;;;;;;;;5073517;28;45736;-62
2024/03/08 11:41:05;;;;;;;;;17.00;17.00;;;;;;;;5073373;27;45523;-62
2024/03/08 11:43:30;;;;;;;;;19.00;17.33;;;;;;;;5078447;27;45489;-62
2024/03/08 11:46:08;;;;;;;;;18.00;18.00;;;;;;;;5078118;27;45349;-63
2024/03/08 11:48:35;;;;;;;;;15.33;14.00;;;;;;;;5068353;27;45549;-62
2024/03/08 11:51:04;;;;;;;;;19.00;17.33;;;;;;;;5078108;27;45405;-63
2024/03/08 11:53:30;;;;;;;;;19.67;19.33;;;;;;;;5077162;27;46345;-65
2024/03/08 11:56:04;;;;;;;;;21.67;18.00;;;;;;;;5079647;27;45467;-64
2024/03/08 11:58:29;;;;;;;;;19.33;17.33;;;;;;;;5080528;27;45396;-65
2024/03/08 12:01:02;;;;;;;;;18.33;16.33;;;;;;;;5074803;27;45361;-65
2024/03/08 12:03:27;;;;;;;;;23.67;16.67;;;;;;;;5085238;27;46481;-65
2024/03/08 12:05:59;;;;;;;;;23.50;18.50;;;;;;;;5089209;27;45414;-65
2024/03/08 12:08:28;;;;;;;;;15.75;14.50;;;;;;;;5089792;27;45288;-65
2024/03/08 12:10:55;;;;;;;;;19.75;16.00;;;;;;;;5081086;27;45411;-65
2024/03/08 12:13:20;;;;;;;;;18.33;17.67;;;;;;;;5086882;27;47339;-66
2024/03/08 12:15:46;;;;;;;;;34.00;23.00;;;;;;;;5084290;27;45414;-65
2024/03/08 12:18:12;;;;;;;;;18.00;17.67;;;;;;;;5079510;27;45427;-65
2024/03/08 12:20:39;;;;;;;;;19.00;19.00;;;;;;;;5083857;27;45599;-65
2024/03/08 12:23:05;;;;;;;;;16.50;15.50;;;;;;;;5078240;27;47467;-65
2024/03/08 12:25:31;;;;;;;;;16.67;16.00;;;;;;;;5086149;27;45389;-65
2024/03/08 12:27:57;;;;;;;;;17.67;17.67;;;;;;;;5082344;27;45508;-65
2024/03/08 12:30:28;;;;;;;;;20.33;20.33;;;;;;;;5077922;27;45455;-64
2024/03/08 12:32:58;;;;;;;;;17.67;17.67;;;;;;;;5088346;27;46159;-65
2024/03/08 12:35:24;;;;;;;;;19.33;19.33;;;;;;;;5088033;27;45666;-64
2024/03/08 12:37:53;;;;;;;;;18.33;17.00;;;;;;;;5079358;27;45342;-65
2024/03/08 12:40:18;;;;;;;;;19.33;17.00;;;;;;;;5079429;27;45579;-65
2024/03/08 12:42:47;;;;;;;;;18.00;16.00;;;;;;;;5078307;27;46333;-64
2024/03/08 12:45:12;;;;;;;;;16.67;16.33;;;;;;;;5076043;27;45358;-64
2024/03/08 12:47:37;;;;;;;;;20.00;18.00;;;;;;;;5077070;27;45637;-65
2024/03/08 12:50:03;;;;;;;;;18.67;16.00;;;;;;;;5076043;27;45591;-64
2024/03/08 12:52:30;;;;;;;;;17.00;16.00;;;;;;;;5076985;27;46310;-67
2024/03/08 12:54:55;;;;;;;;;21.33;17.67;;;;;;;;5078150;27;45442;-62
2024/03/08 12:57:20;;;;;;;;;18.00;15.00;;;;;;;;5078248;27;45370;-63
2024/03/08 12:59:45;;;;;;;;;25.00;19.33;;;;;;;;5077187;27;45511;-62
2024/03/08 13:02:11;;;;;;;;;19.00;15.67;;;;;;;;5076769;27;45342;-62
2024/03/08 13:04:36;;;;;;;;;13.33;13.33;;;;;;;;5072828;27;46557;-62
2024/03/08 13:07:02;;;;;;;;;15.33;14.00;;;;;;;;5078075;27;45300;-62
2024/03/08 13:09:27;;;;;;;;;19.67;16.00;;;;;;;;5075347;27;45591;-62
2024/03/08 13:11:54;;;;;;;;;22.33;18.00;;;;;;;;5078275;27;45515;-61
2024/03/08 13:14:20;;;;;;;;;20.00;18.00;;;;;;;;5074679;27;45389;-58
2024/03/08 13:16:47;;;;;;;;;16.33;15.67;;;;;;;;5073139;28;45257;-59
2024/03/08 13:19:13;;;;;;;;;16.33;15.33;;;;;;;;5073319;27;45752;-59
2024/03/08 13:21:38;;;;;;;;;15.00;13.00;;;;;;;;5063152;27;46497;-57
2024/03/08 13:24:03;;;;;;;;;10.33;10.33;;;;;;;;5073786;27;45504;-58
2024/03/08 13:26:32;;;;;;;;;13.00;12.33;;;;;;;;5076226;27;46272;-57
2024/03/08 13:28:58;;;;;;;;;14.00;11.00;;;;;;;;5065122;27;45915;-57
2024/03/08 13:31:23;;;;;;;;;17.67;17.67;;;;;;;;5070474;27;47059;-58
2024/03/08 13:33:49;;;;;;;;;15.00;15.00;;;;;;;;5076782;27;45489;-57
2024/03/08 13:36:15;;;;;;;;;11.00;10.67;;;;;;;;5076200;27;45480;-58
2024/03/08 13:38:43;;;;;;;;;16.00;15.00;;;;;;;;5074795;27;45604;-58
2024/03/08 13:41:09;;;;;;;;;17.00;15.33;;;;;;;;5071145;27;45434;-58
2024/03/08 13:43:36;;;;;;;;;15.67;14.67;;;;;;;;5073337;27;45543;-58
2024/03/08 13:46:02;;;;;;;;;14.33;14.33;;;;;;;;5073222;27;45531;-58
2024/03/08 13:48:27;;;;;;;;;15.33;12.67;;;;;;;;5075603;27;45412;-58
2024/03/08 13:50:52;;;;;;;;;18.00;13.33;;;;;;;;5077349;28;46362;-58
2024/03/08 13:53:18;;;;;;;;;11.67;9.67;;;;;;;;5076793;27;45445;-58
2024/03/08 13:55:43;;;;;;;;;14.00;12.67;;;;;;;;5076267;27;45456;-58
2024/03/08 13:58:09;;;;;;;;;17.33;13.00;;;;;;;;5075305;27;45539;-58
2024/03/08 14:00:35;;;;;;;;;11.33;9.00;;;;;;;;5074348;27;46489;-58
2024/03/08 14:03:05;;;;;;;;;10.33;9.33;;;;;;;;5076106;27;45476;-58
2024/03/08 14:05:32;;;;;;;;;12.00;12.00;;;;;;;;5077864;27;45393;-58
2024/03/08 14:08:00;;;;;;;;;11.33;10.00;;;;;;;;5081364;27;45637;-58
2024/03/08 14:10:27;;;;;;;;;10.00;9.67;;;;;;;;5076999;27;45618;-57